sensor_id;sensor_type;location;lat;lon;timestamp;P1;durP1;ratioP1;P2;durP2;ratioP2
18435;SDS011;9346;52.006;4.720;2022-07-12T00:02:08;2.50;;;2.20;;
18435;SDS011;9346;52.006;4.720;2022-07-12T00:04:35;2.63;;;2.20;;
18435;SDS011;9346;52.006;4.720;2022-07-12T00:07:04;2.67;;;2.20;;
18435;SDS011;9346;52.006;4.720;2022-07-12T00:09:31;2.43;;;2.10;;
18435;SDS011;9346;52.006;4.720;2022-07-12T00:11:59;2.63;;;2.30;;
18435;SDS011;9346;52.006;4.720;2022-07-12T00:14:26;2.53;;;1.80;;
18435;SDS011;9346;52.006;4.720;2022-07-12T00:16:52;3.53;;;2.73;;
18435;SDS011;9346;52.006;4.720;2022-07-12T00:19:19;3.17;;;2.13;;
18435;SDS011;9346;52.006;4.720;2022-07-12T00:21:46;3.43;;;2.50;;
18435;SDS011;9346;52.006;4.720;2022-07-12T00:24:15;2.50;;;1.97;;
18435;SDS011;9346;52.006;4.720;2022-07-12T00:26:41;2.53;;;2.10;;
18435;SDS011;9346;52.006;4.720;2022-07-12T00:29:08;2.50;;;2.30;;
18435;SDS011;9346;52.006;4.720;2022-07-12T00:31:36;3.77;;;2.70;;
18435;SDS011;9346;52.006;4.720;2022-07-12T00:34:02;2.80;;;2.50;;
18435;SDS011;9346;52.006;4.720;2022-07-12T00:36:29;3.80;;;2.73;;
18435;SDS011;9346;52.006;4.720;2022-07-12T00:38:56;2.53;;;2.30;;
18435;SDS011;9346;52.006;4.720;2022-07-12T00:41:24;2.20;;;2.00;;
18435;SDS011;9346;52.006;4.720;2022-07-12T00:43:51;2.53;;;2.30;;
18435;SDS011;9346;52.006;4.720;2022-07-12T00:46:18;2.70;;;2.23;;
18435;SDS011;9346;52.006;4.720;2022-07-12T00:48:48;3.93;;;2.70;;
18435;SDS011;9346;52.006;4.720;2022-07-12T00:51:16;2.47;;;1.77;;
18435;SDS011;9346;52.006;4.720;2022-07-12T00:53:44;2.97;;;2.37;;
18435;SDS011;9346;52.006;4.720;2022-07-12T00:56:12;2.57;;;2.13;;
18435;SDS011;9346;52.006;4.720;2022-07-12T00:58:41;3.13;;;2.50;;
18435;SDS011;9346;52.006;4.720;2022-07-12T01:01:08;2.50;;;2.30;;
18435;SDS011;9346;52.006;4.720;2022-07-12T01:03:35;2.93;;;2.37;;
18435;SDS011;9346;52.006;4.720;2022-07-12T01:06:03;2.83;;;2.57;;
18435;SDS011;9346;52.006;4.720;2022-07-12T01:08:31;3.37;;;2.80;;
18435;SDS011;9346;52.006;4.720;2022-07-12T01:10:59;3.17;;;2.87;;
18435;SDS011;9346;52.006;4.720;2022-07-12T01:13:27;3.40;;;3.10;;
18435;SDS011;9346;52.006;4.720;2022-07-12T01:15:56;3.90;;;3.27;;
18435;SDS011;9346;52.006;4.720;2022-07-12T01:18:24;2.67;;;2.43;;
18435;SDS011;9346;52.006;4.720;2022-07-12T01:20:52;3.80;;;3.10;;
18435;SDS011;9346;52.006;4.720;2022-07-12T01:23:22;4.07;;;3.17;;
18435;SDS011;9346;52.006;4.720;2022-07-12T01:25:49;3.07;;;2.70;;
18435;SDS011;9346;52.006;4.720;2022-07-12T01:28:16;2.97;;;2.43;;
18435;SDS011;9346;52.006;4.720;2022-07-12T01:30:43;3.47;;;2.57;;
18435;SDS011;9346;52.006;4.720;2022-07-12T01:33:10;3.67;;;2.37;;
18435;SDS011;9346;52.006;4.720;2022-07-12T01:35:37;4.33;;;2.90;;
18435;SDS011;9346;52.006;4.720;2022-07-12T01:38:05;3.17;;;2.80;;
18435;SDS011;9346;52.006;4.720;2022-07-12T01:40:33;3.33;;;2.90;;
18435;SDS011;9346;52.006;4.720;2022-07-12T01:43:01;3.73;;;3.33;;
18435;SDS011;9346;52.006;4.720;2022-07-12T01:45:28;3.27;;;2.97;;
18435;SDS011;9346;52.006;4.720;2022-07-12T01:47:55;3.67;;;3.00;;
18435;SDS011;9346;52.006;4.720;2022-07-12T01:50:23;3.50;;;3.20;;
18435;SDS011;9346;52.006;4.720;2022-07-12T01:52:51;3.40;;;2.70;;
18435;SDS011;9346;52.006;4.720;2022-07-12T01:55:18;3.20;;;2.80;;
18435;SDS011;9346;52.006;4.720;2022-07-12T01:57:47;3.40;;;2.73;;
18435;SDS011;9346;52.006;4.720;2022-07-12T02:00:15;3.57;;;2.63;;
18435;SDS011;9346;52.006;4.720;2022-07-12T02:02:44;4.20;;;3.37;;
18435;SDS011;9346;52.006;4.720;2022-07-12T02:05:12;3.30;;;3.00;;
18435;SDS011;9346;52.006;4.720;2022-07-12T02:07:39;3.93;;;2.70;;
18435;SDS011;9346;52.006;4.720;2022-07-12T02:10:07;4.60;;;3.37;;
18435;SDS011;9346;52.006;4.720;2022-07-12T02:12:34;3.67;;;2.97;;
18435;SDS011;9346;52.006;4.720;2022-07-12T02:15:04;3.00;;;2.60;;
18435;SDS011;9346;52.006;4.720;2022-07-12T02:17:32;3.70;;;3.40;;
18435;SDS011;9346;52.006;4.720;2022-07-12T02:19:59;3.70;;;3.07;;
18435;SDS011;9346;52.006;4.720;2022-07-12T02:22:26;3.97;;;3.57;;
18435;SDS011;9346;52.006;4.720;2022-07-12T02:24:54;3.73;;;3.40;;
18435;SDS011;9346;52.006;4.720;2022-07-12T02:27:21;3.47;;;3.17;;
18435;SDS011;9346;52.006;4.720;2022-07-12T02:29:48;4.17;;;3.37;;
18435;SDS011;9346;52.006;4.720;2022-07-12T02:32:17;3.33;;;3.03;;
18435;SDS011;9346;52.006;4.720;2022-07-12T02:34:44;6.40;;;4.10;;
18435;SDS011;9346;52.006;4.720;2022-07-12T02:37:11;5.07;;;3.33;;
18435;SDS011;9346;52.006;4.720;2022-07-12T02:39:39;5.10;;;3.67;;
18435;SDS011;9346;52.006;4.720;2022-07-12T02:42:06;4.23;;;3.37;;
18435;SDS011;9346;52.006;4.720;2022-07-12T02:44:33;4.70;;;3.80;;
18435;SDS011;9346;52.006;4.720;2022-07-12T02:47:01;5.00;;;3.70;;
18435;SDS011;9346;52.006;4.720;2022-07-12T02:49:29;4.13;;;3.30;;
18435;SDS011;9346;52.006;4.720;2022-07-12T02:51:56;4.47;;;3.30;;
18435;SDS011;9346;52.006;4.720;2022-07-12T02:54:23;4.20;;;3.50;;
18435;SDS011;9346;52.006;4.720;2022-07-12T02:56:50;3.33;;;3.00;;
18435;SDS011;9346;52.006;4.720;2022-07-12T02:59:17;3.80;;;3.40;;
18435;SDS011;9346;52.006;4.720;2022-07-12T03:01:44;4.67;;;3.47;;
18435;SDS011;9346;52.006;4.720;2022-07-12T03:04:11;3.63;;;3.30;;
18435;SDS011;9346;52.006;4.720;2022-07-12T03:06:39;4.23;;;3.60;;
18435;SDS011;9346;52.006;4.720;2022-07-12T03:09:06;4.10;;;3.50;;
18435;SDS011;9346;52.006;4.720;2022-07-12T03:11:33;3.20;;;2.90;;
18435;SDS011;9346;52.006;4.720;2022-07-12T03:14:00;4.97;;;4.30;;
18435;SDS011;9346;52.006;4.720;2022-07-12T03:16:27;4.80;;;4.00;;
18435;SDS011;9346;52.006;4.720;2022-07-12T03:18:54;4.83;;;4.20;;
18435;SDS011;9346;52.006;4.720;2022-07-12T03:21:21;3.93;;;3.43;;
18435;SDS011;9346;52.006;4.720;2022-07-12T03:23:50;3.97;;;3.20;;
18435;SDS011;9346;52.006;4.720;2022-07-12T03:26:17;4.77;;;3.53;;
18435;SDS011;9346;52.006;4.720;2022-07-12T03:28:44;4.07;;;3.67;;
18435;SDS011;9346;52.006;4.720;2022-07-12T03:31:11;4.23;;;3.67;;
18435;SDS011;9346;52.006;4.720;2022-07-12T03:33:37;5.70;;;3.70;;
18435;SDS011;9346;52.006;4.720;2022-07-12T03:36:04;4.33;;;3.57;;
18435;SDS011;9346;52.006;4.720;2022-07-12T03:38:33;6.53;;;4.17;;
18435;SDS011;9346;52.006;4.720;2022-07-12T03:41:03;4.27;;;3.67;;
18435;SDS011;9346;52.006;4.720;2022-07-12T03:43:30;4.40;;;3.33;;
18435;SDS011;9346;52.006;4.720;2022-07-12T03:45:57;5.30;;;4.27;;
18435;SDS011;9346;52.006;4.720;2022-07-12T03:48:24;4.07;;;3.47;;
18435;SDS011;9346;52.006;4.720;2022-07-12T03:50:52;5.53;;;4.37;;
18435;SDS011;9346;52.006;4.720;2022-07-12T03:53:18;6.73;;;4.77;;
18435;SDS011;9346;52.006;4.720;2022-07-12T03:55:45;6.00;;;4.10;;
18435;SDS011;9346;52.006;4.720;2022-07-12T03:58:14;4.37;;;3.97;;
18435;SDS011;9346;52.006;4.720;2022-07-12T04:00:41;4.67;;;4.10;;
18435;SDS011;9346;52.006;4.720;2022-07-12T04:03:08;5.53;;;4.27;;
18435;SDS011;9346;52.006;4.720;2022-07-12T04:05:36;5.37;;;4.50;;
18435;SDS011;9346;52.006;4.720;2022-07-12T04:08:03;4.07;;;3.53;;
18435;SDS011;9346;52.006;4.720;2022-07-12T04:10:31;5.10;;;4.17;;
18435;SDS011;9346;52.006;4.720;2022-07-12T04:12:58;5.13;;;3.90;;
18435;SDS011;9346;52.006;4.720;2022-07-12T04:15:26;4.87;;;4.30;;
18435;SDS011;9346;52.006;4.720;2022-07-12T04:17:53;7.30;;;4.97;;
18435;SDS011;9346;52.006;4.720;2022-07-12T04:20:20;6.03;;;4.20;;
18435;SDS011;9346;52.006;4.720;2022-07-12T04:22:47;5.47;;;4.37;;
18435;SDS011;9346;52.006;4.720;2022-07-12T04:25:16;6.10;;;4.87;;
18435;SDS011;9346;52.006;4.720;2022-07-12T04:27:43;4.27;;;3.83;;
18435;SDS011;9346;52.006;4.720;2022-07-12T04:30:10;4.90;;;4.37;;
18435;SDS011;9346;52.006;4.720;2022-07-12T04:32:46;5.57;;;4.37;;
18435;SDS011;9346;52.006;4.720;2022-07-12T04:35:13;5.97;;;4.70;;
18435;SDS011;9346;52.006;4.720;2022-07-12T04:37:40;6.57;;;4.70;;
18435;SDS011;9346;52.006;4.720;2022-07-12T04:40:07;5.93;;;4.50;;
18435;SDS011;9346;52.006;4.720;2022-07-12T04:42:36;6.90;;;4.57;;
18435;SDS011;9346;52.006;4.720;2022-07-12T04:45:04;4.90;;;4.13;;
18435;SDS011;9346;52.006;4.720;2022-07-12T04:47:35;4.37;;;3.90;;
18435;SDS011;9346;52.006;4.720;2022-07-12T04:50:05;5.63;;;5.03;;
18435;SDS011;9346;52.006;4.720;2022-07-12T04:52:32;5.53;;;4.90;;
18435;SDS011;9346;52.006;4.720;2022-07-12T04:55:00;5.07;;;4.57;;
18435;SDS011;9346;52.006;4.720;2022-07-12T04:57:27;5.37;;;4.40;;
18435;SDS011;9346;52.006;4.720;2022-07-12T04:59:54;5.30;;;4.73;;
18435;SDS011;9346;52.006;4.720;2022-07-12T05:02:21;6.13;;;5.03;;
18435;SDS011;9346;52.006;4.720;2022-07-12T05:04:48;6.53;;;5.00;;
18435;SDS011;9346;52.006;4.720;2022-07-12T05:07:17;7.83;;;6.17;;
18435;SDS011;9346;52.006;4.720;2022-07-12T05:09:44;6.63;;;5.50;;
18435;SDS011;9346;52.006;4.720;2022-07-12T05:12:12;6.37;;;5.40;;
18435;SDS011;9346;52.006;4.720;2022-07-12T05:14:39;7.43;;;5.77;;
18435;SDS011;9346;52.006;4.720;2022-07-12T05:17:10;6.83;;;5.60;;
18435;SDS011;9346;52.006;4.720;2022-07-12T05:19:37;8.30;;;5.80;;
18435;SDS011;9346;52.006;4.720;2022-07-12T05:22:05;6.50;;;5.67;;
18435;SDS011;9346;52.006;4.720;2022-07-12T05:24:34;6.23;;;5.63;;
18435;SDS011;9346;52.006;4.720;2022-07-12T05:27:01;7.03;;;5.33;;
18435;SDS011;9346;52.006;4.720;2022-07-12T05:29:29;7.17;;;5.67;;
18435;SDS011;9346;52.006;4.720;2022-07-12T05:31:56;7.97;;;6.33;;
18435;SDS011;9346;52.006;4.720;2022-07-12T05:34:26;7.73;;;6.93;;
18435;SDS011;9346;52.006;4.720;2022-07-12T05:36:53;8.50;;;7.53;;
18435;SDS011;9346;52.006;4.720;2022-07-12T05:39:21;11.57;;;9.30;;
18435;SDS011;9346;52.006;4.720;2022-07-12T05:41:49;11.17;;;9.10;;
18435;SDS011;9346;52.006;4.720;2022-07-12T05:44:17;10.93;;;9.10;;
18435;SDS011;9346;52.006;4.720;2022-07-12T05:46:44;12.33;;;10.00;;
18435;SDS011;9346;52.006;4.720;2022-07-12T05:49:11;9.90;;;8.67;;
18435;SDS011;9346;52.006;4.720;2022-07-12T05:51:38;10.67;;;9.57;;
18435;SDS011;9346;52.006;4.720;2022-07-12T05:54:22;13.23;;;9.60;;
18435;SDS011;9346;52.006;4.720;2022-07-12T05:56:50;16.13;;;9.90;;
18435;SDS011;9346;52.006;4.720;2022-07-12T05:59:17;11.90;;;9.50;;
18435;SDS011;9346;52.006;4.720;2022-07-12T06:01:45;9.70;;;8.70;;
18435;SDS011;9346;52.006;4.720;2022-07-12T06:04:12;9.90;;;8.73;;
18435;SDS011;9346;52.006;4.720;2022-07-12T06:06:38;11.87;;;9.07;;
18435;SDS011;9346;52.006;4.720;2022-07-12T06:09:06;12.60;;;9.37;;
18435;SDS011;9346;52.006;4.720;2022-07-12T06:11:32;9.90;;;8.70;;
18435;SDS011;9346;52.006;4.720;2022-07-12T06:14:01;9.80;;;8.77;;
18435;SDS011;9346;52.006;4.720;2022-07-12T06:16:29;10.97;;;9.13;;
18435;SDS011;9346;52.006;4.720;2022-07-12T06:18:56;10.57;;;8.30;;
18435;SDS011;9346;52.006;4.720;2022-07-12T06:21:23;9.93;;;8.17;;
18435;SDS011;9346;52.006;4.720;2022-07-12T06:23:50;10.33;;;9.07;;
18435;SDS011;9346;52.006;4.720;2022-07-12T06:26:18;9.53;;;8.53;;
18435;SDS011;9346;52.006;4.720;2022-07-12T06:28:45;9.40;;;7.80;;
18435;SDS011;9346;52.006;4.720;2022-07-12T06:31:14;9.23;;;8.07;;
18435;SDS011;9346;52.006;4.720;2022-07-12T06:33:41;11.17;;;8.20;;
18435;SDS011;9346;52.006;4.720;2022-07-12T06:36:08;10.83;;;8.80;;
18435;SDS011;9346;52.006;4.720;2022-07-12T06:38:35;9.37;;;7.73;;
18435;SDS011;9346;52.006;4.720;2022-07-12T06:41:02;9.60;;;7.73;;
18435;SDS011;9346;52.006;4.720;2022-07-12T06:43:29;7.90;;;7.10;;
18435;SDS011;9346;52.006;4.720;2022-07-12T06:45:56;8.50;;;7.57;;
18435;SDS011;9346;52.006;4.720;2022-07-12T06:48:24;10.83;;;8.60;;
18435;SDS011;9346;52.006;4.720;2022-07-12T06:50:51;7.97;;;7.10;;
18435;SDS011;9346;52.006;4.720;2022-07-12T06:53:18;12.83;;;8.73;;
18435;SDS011;9346;52.006;4.720;2022-07-12T06:55:45;9.30;;;7.63;;
18435;SDS011;9346;52.006;4.720;2022-07-12T06:58:12;11.77;;;8.53;;
18435;SDS011;9346;52.006;4.720;2022-07-12T07:00:40;10.03;;;8.17;;
18435;SDS011;9346;52.006;4.720;2022-07-12T07:03:07;10.10;;;7.70;;
18435;SDS011;9346;52.006;4.720;2022-07-12T07:05:35;8.73;;;6.80;;
18435;SDS011;9346;52.006;4.720;2022-07-12T07:08:03;9.90;;;7.47;;
18435;SDS011;9346;52.006;4.720;2022-07-12T07:10:30;8.27;;;7.33;;
18435;SDS011;9346;52.006;4.720;2022-07-12T07:12:57;11.47;;;8.03;;
18435;SDS011;9346;52.006;4.720;2022-07-12T07:15:23;10.87;;;7.93;;
18435;SDS011;9346;52.006;4.720;2022-07-12T07:17:52;9.63;;;7.37;;
18435;SDS011;9346;52.006;4.720;2022-07-12T07:20:19;10.10;;;7.50;;
18435;SDS011;9346;52.006;4.720;2022-07-12T07:22:47;11.50;;;7.33;;
18435;SDS011;9346;52.006;4.720;2022-07-12T07:25:14;8.50;;;7.30;;
18435;SDS011;9346;52.006;4.720;2022-07-12T07:27:43;10.37;;;7.07;;
18435;SDS011;9346;52.006;4.720;2022-07-12T07:30:10;9.00;;;7.47;;
18435;SDS011;9346;52.006;4.720;2022-07-12T07:32:54;9.23;;;7.77;;
18435;SDS011;9346;52.006;4.720;2022-07-12T07:35:21;8.40;;;7.37;;
18435;SDS011;9346;52.006;4.720;2022-07-12T07:37:49;6.73;;;6.03;;
18435;SDS011;9346;52.006;4.720;2022-07-12T07:40:16;7.70;;;6.87;;
18435;SDS011;9346;52.006;4.720;2022-07-12T07:42:43;10.43;;;7.20;;
18435;SDS011;9346;52.006;4.720;2022-07-12T07:45:10;9.60;;;7.80;;
18435;SDS011;9346;52.006;4.720;2022-07-12T07:47:44;8.53;;;7.07;;
18435;SDS011;9346;52.006;4.720;2022-07-12T07:50:12;9.57;;;6.73;;
18435;SDS011;9346;52.006;4.720;2022-07-12T07:52:39;10.23;;;6.93;;
18435;SDS011;9346;52.006;4.720;2022-07-12T07:55:08;8.90;;;6.70;;
18435;SDS011;9346;52.006;4.720;2022-07-12T07:57:35;6.90;;;6.20;;
18435;SDS011;9346;52.006;4.720;2022-07-12T08:00:02;9.90;;;6.40;;
18435;SDS011;9346;52.006;4.720;2022-07-12T08:02:31;7.67;;;5.97;;
18435;SDS011;9346;52.006;4.720;2022-07-12T08:04:58;7.43;;;5.93;;
18435;SDS011;9346;52.006;4.720;2022-07-12T08:07:25;6.77;;;5.77;;
18435;SDS011;9346;52.006;4.720;2022-07-12T08:09:52;6.93;;;5.73;;
18435;SDS011;9346;52.006;4.720;2022-07-12T08:12:22;8.80;;;5.90;;
18435;SDS011;9346;52.006;4.720;2022-07-12T08:14:49;6.23;;;4.97;;
18435;SDS011;9346;52.006;4.720;2022-07-12T08:17:15;8.07;;;5.90;;
18435;SDS011;9346;52.006;4.720;2022-07-12T08:19:42;5.97;;;5.37;;
18435;SDS011;9346;52.006;4.720;2022-07-12T08:22:10;5.93;;;5.07;;
18435;SDS011;9346;52.006;4.720;2022-07-12T08:24:37;9.60;;;5.57;;
18435;SDS011;9346;52.006;4.720;2022-07-12T08:27:04;5.43;;;4.93;;
18435;SDS011;9346;52.006;4.720;2022-07-12T08:29:33;5.53;;;4.20;;
18435;SDS011;9346;52.006;4.720;2022-07-12T08:32:00;4.70;;;4.20;;
18435;SDS011;9346;52.006;4.720;2022-07-12T08:34:27;4.67;;;4.13;;
18435;SDS011;9346;52.006;4.720;2022-07-12T08:36:55;5.90;;;4.60;;
18435;SDS011;9346;52.006;4.720;2022-07-12T08:39:21;4.30;;;3.90;;
18435;SDS011;9346;52.006;4.720;2022-07-12T08:41:48;5.47;;;4.50;;
18435;SDS011;9346;52.006;4.720;2022-07-12T08:44:15;5.57;;;3.97;;
18435;SDS011;9346;52.006;4.720;2022-07-12T08:46:44;5.53;;;4.10;;
18435;SDS011;9346;52.006;4.720;2022-07-12T08:49:12;5.33;;;4.60;;
18435;SDS011;9346;52.006;4.720;2022-07-12T08:51:39;4.20;;;3.60;;
18435;SDS011;9346;52.006;4.720;2022-07-12T08:54:07;5.17;;;4.13;;
18435;SDS011;9346;52.006;4.720;2022-07-12T08:56:35;5.43;;;3.83;;
18435;SDS011;9346;52.006;4.720;2022-07-12T08:59:13;11.23;;;5.07;;
18435;SDS011;9346;52.006;4.720;2022-07-12T09:01:44;13.60;;;4.37;;
18435;SDS011;9346;52.006;4.720;2022-07-12T09:04:15;3.97;;;3.57;;
18435;SDS011;9346;52.006;4.720;2022-07-12T09:06:44;4.07;;;2.77;;
18435;SDS011;9346;52.006;4.720;2022-07-12T09:09:25;4.73;;;2.47;;
18435;SDS011;9346;52.006;4.720;2022-07-12T09:11:53;3.87;;;3.30;;
18435;SDS011;9346;52.006;4.720;2022-07-12T09:14:20;3.87;;;3.13;;
18435;SDS011;9346;52.006;4.720;2022-07-12T09:17:00;4.17;;;3.30;;
18435;SDS011;9346;52.006;4.720;2022-07-12T09:19:35;3.00;;;2.53;;
18435;SDS011;9346;52.006;4.720;2022-07-12T09:22:02;3.43;;;2.87;;
18435;SDS011;9346;52.006;4.720;2022-07-12T09:24:30;3.67;;;3.27;;
18435;SDS011;9346;52.006;4.720;2022-07-12T09:26:59;4.93;;;3.67;;
18435;SDS011;9346;52.006;4.720;2022-07-12T09:29:27;3.47;;;2.97;;
18435;SDS011;9346;52.006;4.720;2022-07-12T09:31:54;3.60;;;3.27;;
18435;SDS011;9346;52.006;4.720;2022-07-12T09:34:43;3.67;;;3.07;;
18435;SDS011;9346;52.006;4.720;2022-07-12T09:37:27;3.37;;;3.07;;
18435;SDS011;9346;52.006;4.720;2022-07-12T09:39:54;4.17;;;3.13;;
18435;SDS011;9346;52.006;4.720;2022-07-12T09:42:22;4.10;;;3.10;;
18435;SDS011;9346;52.006;4.720;2022-07-12T09:44:51;3.53;;;3.03;;
18435;SDS011;9346;52.006;4.720;2022-07-12T09:47:21;4.20;;;2.67;;
18435;SDS011;9346;52.006;4.720;2022-07-12T09:49:50;4.70;;;3.20;;
18435;SDS011;9346;52.006;4.720;2022-07-12T09:52:19;3.30;;;3.00;;
18435;SDS011;9346;52.006;4.720;2022-07-12T09:54:49;4.70;;;3.43;;
18435;SDS011;9346;52.006;4.720;2022-07-12T09:57:19;3.33;;;3.03;;
18435;SDS011;9346;52.006;4.720;2022-07-12T09:59:47;3.45;;;3.15;;
18435;SDS011;9346;52.006;4.720;2022-07-12T10:02:17;4.17;;;2.90;;
18435;SDS011;9346;52.006;4.720;2022-07-12T10:04:45;4.73;;;3.77;;
18435;SDS011;9346;52.006;4.720;2022-07-12T10:07:15;4.70;;;3.70;;
18435;SDS011;9346;52.006;4.720;2022-07-12T10:09:43;4.87;;;2.87;;
18435;SDS011;9346;52.006;4.720;2022-07-12T10:12:11;4.07;;;3.40;;
18435;SDS011;9346;52.006;4.720;2022-07-12T10:14:42;4.13;;;3.30;;
18435;SDS011;9346;52.006;4.720;2022-07-12T10:17:11;3.53;;;2.88;;
18435;SDS011;9346;52.006;4.720;2022-07-12T10:19:39;8.53;;;3.87;;
18435;SDS011;9346;52.006;4.720;2022-07-12T10:22:18;4.18;;;3.20;;
18435;SDS011;9346;52.006;4.720;2022-07-12T10:24:48;3.83;;;3.35;;
18435;SDS011;9346;52.006;4.720;2022-07-12T10:27:26;5.55;;;3.65;;
18435;SDS011;9346;52.006;4.720;2022-07-12T10:30:11;3.00;;;2.47;;
18435;SDS011;9346;52.006;4.720;2022-07-12T10:32:43;3.03;;;2.73;;
18435;SDS011;9346;52.006;4.720;2022-07-12T10:35:12;2.47;;;2.27;;
18435;SDS011;9346;52.006;4.720;2022-07-12T10:37:42;2.92;;;2.15;;
18435;SDS011;9346;52.006;4.720;2022-07-12T10:40:50;2.80;;;2.50;;
18435;SDS011;9346;52.006;4.720;2022-07-12T10:43:18;4.88;;;2.50;;
18435;SDS011;9346;52.006;4.720;2022-07-12T10:46:13;2.63;;;1.90;;
18435;SDS011;9346;52.006;4.720;2022-07-12T10:48:45;3.15;;;2.58;;
18435;SDS011;9346;52.006;4.720;2022-07-12T10:51:12;3.38;;;2.42;;
18435;SDS011;9346;52.006;4.720;2022-07-12T10:53:41;3.22;;;2.53;;
18435;SDS011;9346;52.006;4.720;2022-07-12T10:56:15;2.38;;;2.17;;
18435;SDS011;9346;52.006;4.720;2022-07-12T10:58:44;3.47;;;2.90;;
18435;SDS011;9346;52.006;4.720;2022-07-12T11:01:13;3.75;;;3.20;;
18435;SDS011;9346;52.006;4.720;2022-07-12T11:03:41;3.40;;;2.38;;
18435;SDS011;9346;52.006;4.720;2022-07-12T11:06:10;2.85;;;2.58;;
18435;SDS011;9346;52.006;4.720;2022-07-12T11:08:49;3.05;;;2.70;;
18435;SDS011;9346;52.006;4.720;2022-07-12T11:11:18;3.88;;;3.03;;
18435;SDS011;9346;52.006;4.720;2022-07-12T11:13:47;2.70;;;2.38;;
18435;SDS011;9346;52.006;4.720;2022-07-12T11:16:14;3.75;;;2.22;;
18435;SDS011;9346;52.006;4.720;2022-07-12T11:18:41;3.22;;;2.83;;
18435;SDS011;9346;52.006;4.720;2022-07-12T11:21:08;3.63;;;2.58;;
18435;SDS011;9346;52.006;4.720;2022-07-12T11:23:35;2.88;;;2.17;;
18435;SDS011;9346;52.006;4.720;2022-07-12T11:26:08;3.10;;;2.60;;
18435;SDS011;9346;52.006;4.720;2022-07-12T11:28:37;3.50;;;2.72;;
18435;SDS011;9346;52.006;4.720;2022-07-12T11:31:05;3.22;;;2.50;;
18435;SDS011;9346;52.006;4.720;2022-07-12T11:33:34;2.50;;;2.00;;
18435;SDS011;9346;52.006;4.720;2022-07-12T11:36:02;2.33;;;1.95;;
18435;SDS011;9346;52.006;4.720;2022-07-12T11:38:31;1.95;;;1.80;;
18435;SDS011;9346;52.006;4.720;2022-07-12T11:40:59;2.72;;;2.28;;
18435;SDS011;9346;52.006;4.720;2022-07-12T11:43:29;3.90;;;1.95;;
18435;SDS011;9346;52.006;4.720;2022-07-12T11:45:57;1.75;;;1.65;;
18435;SDS011;9346;52.006;4.720;2022-07-12T11:48:24;2.13;;;1.50;;
18435;SDS011;9346;52.006;4.720;2022-07-12T11:50:51;2.40;;;1.65;;
18435;SDS011;9346;52.006;4.720;2022-07-12T11:53:19;2.92;;;1.63;;
18435;SDS011;9346;52.006;4.720;2022-07-12T11:55:48;1.67;;;1.58;;
18435;SDS011;9346;52.006;4.720;2022-07-12T11:58:16;1.88;;;1.70;;
18435;SDS011;9346;52.006;4.720;2022-07-12T12:00:46;1.85;;;1.73;;
18435;SDS011;9346;52.006;4.720;2022-07-12T12:03:14;1.60;;;1.50;;
18435;SDS011;9346;52.006;4.720;2022-07-12T12:05:42;1.88;;;1.55;;
18435;SDS011;9346;52.006;4.720;2022-07-12T12:08:10;2.38;;;1.58;;
18435;SDS011;9346;52.006;4.720;2022-07-12T12:10:39;3.80;;;1.92;;
18435;SDS011;9346;52.006;4.720;2022-07-12T12:13:12;2.30;;;1.85;;
18435;SDS011;9346;52.006;4.720;2022-07-12T12:15:41;2.22;;;2.03;;
18435;SDS011;9346;52.006;4.720;2022-07-12T12:18:27;2.13;;;1.75;;
18435;SDS011;9346;52.006;4.720;2022-07-12T12:20:58;2.10;;;1.90;;
18435;SDS011;9346;52.006;4.720;2022-07-12T12:23:26;2.20;;;1.73;;
18435;SDS011;9346;52.006;4.720;2022-07-12T12:26:07;2.28;;;1.90;;
18435;SDS011;9346;52.006;4.720;2022-07-12T12:28:41;1.77;;;1.50;;
18435;SDS011;9346;52.006;4.720;2022-07-12T12:31:14;1.60;;;1.50;;
18435;SDS011;9346;52.006;4.720;2022-07-12T12:33:42;1.65;;;1.52;;
18435;SDS011;9346;52.006;4.720;2022-07-12T12:36:14;3.22;;;1.70;;
18435;SDS011;9346;52.006;4.720;2022-07-12T12:38:43;1.83;;;1.70;;
18435;SDS011;9346;52.006;4.720;2022-07-12T12:41:11;2.33;;;1.52;;
18435;SDS011;9346;52.006;4.720;2022-07-12T12:43:38;2.03;;;1.70;;
18435;SDS011;9346;52.006;4.720;2022-07-12T12:46:06;1.65;;;1.50;;
18435;SDS011;9346;52.006;4.720;2022-07-12T12:48:35;2.10;;;1.88;;
18435;SDS011;9346;52.006;4.720;2022-07-12T12:51:03;2.55;;;2.00;;
18435;SDS011;9346;52.006;4.720;2022-07-12T12:53:32;1.67;;;1.58;;
18435;SDS011;9346;52.006;4.720;2022-07-12T12:55:59;2.15;;;1.95;;
18435;SDS011;9346;52.006;4.720;2022-07-12T12:58:27;3.17;;;2.13;;
18435;SDS011;9346;52.006;4.720;2022-07-12T13:00:54;3.05;;;2.10;;
18435;SDS011;9346;52.006;4.720;2022-07-12T13:03:24;2.88;;;2.40;;
18435;SDS011;9346;52.006;4.720;2022-07-12T13:05:53;2.78;;;2.15;;
18435;SDS011;9346;52.006;4.720;2022-07-12T13:08:20;2.05;;;1.83;;
18435;SDS011;9346;52.006;4.720;2022-07-12T13:10:47;1.63;;;1.52;;
18435;SDS011;9346;52.006;4.720;2022-07-12T13:13:35;1.98;;;1.77;;
18435;SDS011;9346;52.006;4.720;2022-07-12T13:16:03;2.60;;;2.10;;
18435;SDS011;9346;52.006;4.720;2022-07-12T13:18:30;1.83;;;1.70;;
18435;SDS011;9346;52.006;4.720;2022-07-12T13:21:00;1.60;;;1.50;;
18435;SDS011;9346;52.006;4.720;2022-07-12T13:23:27;3.30;;;2.15;;
18435;SDS011;9346;52.006;4.720;2022-07-12T13:25:54;3.67;;;2.58;;
18435;SDS011;9346;52.006;4.720;2022-07-12T13:28:21;3.40;;;2.42;;
18435;SDS011;9346;52.006;4.720;2022-07-12T13:30:48;2.05;;;1.88;;
18435;SDS011;9346;52.006;4.720;2022-07-12T13:33:17;3.45;;;2.20;;
18435;SDS011;9346;52.006;4.720;2022-07-12T13:35:45;3.45;;;2.00;;
18435;SDS011;9346;52.006;4.720;2022-07-12T13:38:13;3.10;;;2.00;;
18435;SDS011;9346;52.006;4.720;2022-07-12T13:40:40;2.08;;;1.88;;
18435;SDS011;9346;52.006;4.720;2022-07-12T13:43:08;2.03;;;1.85;;
18435;SDS011;9346;52.006;4.720;2022-07-12T13:45:35;2.92;;;2.33;;
18435;SDS011;9346;52.006;4.720;2022-07-12T13:48:02;2.75;;;2.53;;
18435;SDS011;9346;52.006;4.720;2022-07-12T13:50:29;2.63;;;2.30;;
18435;SDS011;9346;52.006;4.720;2022-07-12T13:52:56;2.60;;;2.13;;
18435;SDS011;9346;52.006;4.720;2022-07-12T13:55:25;2.70;;;2.45;;
18435;SDS011;9346;52.006;4.720;2022-07-12T13:57:52;2.20;;;2.00;;
18435;SDS011;9346;52.006;4.720;2022-07-12T14:00:19;3.25;;;2.17;;
18435;SDS011;9346;52.006;4.720;2022-07-12T14:02:46;3.03;;;2.30;;
18435;SDS011;9346;52.006;4.720;2022-07-12T14:05:14;2.30;;;2.10;;
18435;SDS011;9346;52.006;4.720;2022-07-12T14:07:42;2.30;;;1.90;;
18435;SDS011;9346;52.006;4.720;2022-07-12T14:10:12;2.00;;;1.80;;
18435;SDS011;9346;52.006;4.720;2022-07-12T14:12:41;2.40;;;2.20;;
18435;SDS011;9346;52.006;4.720;2022-07-12T14:15:09;2.47;;;2.28;;
18435;SDS011;9346;52.006;4.720;2022-07-12T14:18:01;1.92;;;1.73;;
18435;SDS011;9346;52.006;4.720;2022-07-12T14:20:31;2.30;;;2.08;;
18435;SDS011;9346;52.006;4.720;2022-07-12T14:22:59;3.50;;;2.28;;
18435;SDS011;9346;52.006;4.720;2022-07-12T14:25:26;1.65;;;1.55;;
18435;SDS011;9346;52.006;4.720;2022-07-12T14:27:54;1.73;;;1.63;;
18435;SDS011;9346;52.006;4.720;2022-07-12T14:30:21;2.20;;;1.75;;
18435;SDS011;9346;52.006;4.720;2022-07-12T14:32:49;2.40;;;1.70;;
18435;SDS011;9346;52.006;4.720;2022-07-12T14:35:16;1.73;;;1.63;;
18435;SDS011;9346;52.006;4.720;2022-07-12T14:37:43;1.60;;;1.50;;
18435;SDS011;9346;52.006;4.720;2022-07-12T14:40:10;1.83;;;1.63;;
18435;SDS011;9346;52.006;4.720;2022-07-12T14:42:37;1.75;;;1.58;;
18435;SDS011;9346;52.006;4.720;2022-07-12T14:45:07;1.27;;;1.17;;
18435;SDS011;9346;52.006;4.720;2022-07-12T14:47:34;1.60;;;1.50;;
18435;SDS011;9346;52.006;4.720;2022-07-12T14:50:01;1.35;;;1.25;;
18435;SDS011;9346;52.006;4.720;2022-07-12T14:52:30;1.92;;;1.70;;
18435;SDS011;9346;52.006;4.720;2022-07-12T14:54:57;1.48;;;1.38;;
18435;SDS011;9346;52.006;4.720;2022-07-12T14:57:24;1.70;;;1.60;;
18435;SDS011;9346;52.006;4.720;2022-07-12T14:59:51;1.92;;;1.38;;
18435;SDS011;9346;52.006;4.720;2022-07-12T15:02:21;1.77;;;1.60;;
18435;SDS011;9346;52.006;4.720;2022-07-12T15:04:48;1.65;;;1.55;;
18435;SDS011;9346;52.006;4.720;2022-07-12T15:07:16;1.58;;;1.48;;
18435;SDS011;9346;52.006;4.720;2022-07-12T15:09:43;1.52;;;1.33;;